SBMO/MCZ METAR and TAF weather

Enter ICAO airport designator
Station Type Date Time Source
SBMO METAR 2020/10/20 17:00 UTC NOAA

SBMO 201700Z 10012KT 9999 BKN033 28/19 Q1014


Station Type Date Time Source
SBMO Decoded METAR 2020/10/20 17:00 UTC NOAA

Maceio Aeroporto , Brazil (SBMO) 09-31S 035-47W 115M
Oct 20, 2020 - 01:00 PM EDT / 2020.10.20 1700 UTC
Wind: from the E (100 degrees) at 14 MPH (12 KT):0
Visibility: greater than 7 mile(s):0
Sky conditions: mostly cloudy
Temperature: 82 F (28 C)
Dew Point: 66 F (19 C)
Relative Humidity: 58%
Pressure (altimeter): 29.94 in. Hg (1014 hPa)
ob: SBMO 201700Z 10012KT 9999 BKN033 28/19 Q1014
cycle: 17

Station Type Date Time Source
SBMO TAF 2020/10/20 18:09 UTC NOAA

TAF TAF SBMO 201515Z 2018/2118 14015KT 9999 SCT025 TX29/2018Z TN20/2109Z
BECMG 2021/2023 11005KT FEW030
BECMG 2103/2105 05005KT CAVOK
BECMG 2106/2108 36005KT 9999 SCT018
BECMG 2111/2112 11010KT SCT025
BECMG 2115/2116 14015KT SCT035
RMK PGB

Example: see airport list